createdAt,value
2019-05-10T00:00:28.335Z,10.55
2019-05-10T00:03:18.216Z,10.00
2019-05-10T00:06:07.924Z,12.13
2019-05-10T00:08:47.543Z,9.58
2019-05-10T00:11:38.866Z,11.48
2019-05-10T00:14:20.333Z,11.05
2019-05-10T00:16:53.956Z,11.78
2019-05-10T00:19:26.019Z,13.62
2019-05-10T00:21:57.658Z,12.33
2019-05-10T00:24:29.534Z,10.68
2019-05-10T00:27:01.729Z,13.15
2019-05-10T00:29:33.461Z,12.37
2019-05-10T00:32:05.019Z,12.10
2019-05-10T00:34:36.882Z,13.68
2019-05-10T00:37:08.835Z,13.28
2019-05-10T00:39:40.709Z,11.83
2019-05-10T00:42:13.048Z,10.68
2019-05-10T00:44:44.940Z,14.60
2019-05-10T00:47:16.864Z,14.35
2019-05-10T00:49:48.871Z,10.55
2019-05-10T00:52:20.629Z,11.40
2019-05-10T00:54:52.284Z,12.28
2019-05-10T00:57:24.030Z,12.07
2019-05-10T00:59:55.802Z,11.50
2019-05-10T01:02:27.855Z,13.98
2019-05-10T01:04:59.731Z,10.75
2019-05-10T01:07:31.399Z,10.53
2019-05-10T01:10:03.869Z,14.07
2019-05-10T01:12:35.406Z,12.55
2019-05-10T01:15:09.312Z,13.65
2019-05-10T01:17:41.196Z,11.12
2019-05-10T01:20:13.300Z,12.50
2019-05-10T01:22:45.118Z,12.75
2019-05-10T01:25:17.296Z,13.20
2019-05-10T01:27:49.333Z,16.40
2019-05-10T01:30:21.419Z,15.35
2019-05-10T01:32:53.193Z,17.02
2019-05-10T01:35:25.019Z,17.20
2019-05-10T01:37:57.129Z,16.85
2019-05-10T01:40:29.055Z,14.75
2019-05-10T01:43:00.813Z,13.48
2019-05-10T01:45:33.001Z,22.37
2019-05-10T01:48:04.769Z,22.93
2019-05-10T01:50:36.622Z,18.85
2019-05-10T01:53:08.697Z,24.02
2019-05-10T01:55:51.760Z,22.37
2019-05-10T01:58:13.954Z,30.52
2019-05-10T02:00:45.815Z,23.70
2019-05-10T02:03:17.687Z,20.23
2019-05-10T02:05:49.547Z,23.32
2019-05-10T02:12:40.321Z,29.12
2019-05-10T02:15:12.424Z,25.77
2019-05-10T02:17:44.097Z,26.85
2019-05-10T02:20:16.764Z,34.33
2019-05-10T02:22:48.437Z,29.50
2019-05-10T02:25:20.453Z,34.10
2019-05-10T02:27:52.045Z,35.52
2019-05-10T02:30:24.016Z,36.85
2019-05-10T02:32:55.563Z,35.78
2019-05-10T02:35:27.530Z,44.35
2019-05-10T02:37:59.733Z,41.92
2019-05-10T02:40:31.561Z,38.38
2019-05-10T02:43:03.587Z,34.88
2019-05-10T02:45:35.324Z,41.60
2019-05-10T02:48:07.253Z,34.90
2019-05-10T02:50:38.804Z,35.52
2019-05-10T02:53:11.477Z,32.83
2019-05-10T02:55:44.252Z,29.18
2019-05-10T02:58:15.716Z,35.65
2019-05-10T03:00:50.256Z,25.43
2019-05-10T03:03:24.855Z,29.37
2019-05-10T03:05:57.810Z,24.67
2019-05-10T03:08:32.941Z,26.23
2019-05-10T03:11:04.561Z,21.33
2019-05-10T03:13:36.757Z,18.15
2019-05-10T03:16:08.490Z,17.55
2019-05-10T03:18:42.359Z,18.95
2019-05-10T03:21:17.244Z,20.80
2019-05-10T03:23:49.309Z,19.95
2019-05-10T03:26:21.027Z,17.90
2019-05-10T03:28:52.989Z,16.32
2019-05-10T03:31:24.993Z,19.92
2019-05-10T03:33:57.930Z,17.95
2019-05-10T03:36:29.683Z,19.55
2019-05-10T03:39:02.135Z,23.52
2019-05-10T03:41:33.778Z,18.55
2019-05-10T03:44:05.855Z,21.95
2019-05-10T03:46:39.039Z,19.27
2019-05-10T03:49:10.686Z,22.00
2019-05-10T03:51:42.361Z,29.23
2019-05-10T03:54:14.468Z,24.35
2019-05-10T03:56:46.530Z,24.43
2019-05-10T03:59:19.897Z,20.88
2019-05-10T04:01:52.171Z,23.10
2019-05-10T04:04:24.350Z,22.60
2019-05-10T04:06:56.919Z,21.37
2019-05-10T04:09:28.882Z,23.00
2019-05-10T04:12:00.548Z,26.70
2019-05-10T04:14:32.401Z,24.72
2019-05-10T04:17:04.650Z,26.82
2019-05-10T04:19:36.471Z,21.97
2019-05-10T04:22:08.280Z,23.07
2019-05-10T04:24:40.152Z,26.05
2019-05-10T04:27:30.670Z,19.95
2019-05-10T04:29:45.695Z,19.42
2019-05-10T04:32:17.787Z,18.32
2019-05-10T04:34:49.655Z,19.00
2019-05-10T04:37:21.404Z,21.07
2019-05-10T04:39:53.370Z,16.27
2019-05-10T04:42:25.176Z,16.57
2019-05-10T04:44:56.663Z,14.80
2019-05-10T04:47:28.850Z,18.75
2019-05-10T04:50:01.208Z,16.87
2019-05-10T04:52:32.878Z,17.55
2019-05-10T04:55:06.642Z,17.73
2019-05-10T04:57:49.816Z,16.12
2019-05-10T05:00:11.842Z,15.25
2019-05-10T05:02:43.794Z,11.12
2019-05-10T05:05:15.574Z,9.55
2019-05-10T05:07:47.846Z,8.85
2019-05-10T05:10:19.703Z,10.10
2019-05-10T05:12:51.766Z,10.18
2019-05-10T05:15:23.510Z,10.40
2019-05-10T05:17:55.267Z,9.68
2019-05-10T05:20:27.253Z,11.57
2019-05-10T05:22:58.933Z,11.38
2019-05-10T05:25:35.130Z,10.88
2019-05-10T05:28:08.079Z,10.43
2019-05-10T05:30:38.819Z,10.58
2019-05-10T05:33:12.604Z,13.03
2019-05-10T05:35:44.869Z,12.53
2019-05-10T05:38:16.529Z,9.45
2019-05-10T05:40:48.475Z,7.75
2019-05-10T05:43:20.572Z,14.55
2019-05-10T05:45:52.221Z,9.03
2019-05-10T05:48:32.422Z,11.73
2019-05-10T05:50:57.487Z,9.95
2019-05-10T05:53:29.657Z,12.23
2019-05-10T05:56:03.687Z,9.73
2019-05-10T05:58:38.286Z,8.60
2019-05-10T06:01:07.885Z,9.55
2019-05-10T06:03:39.762Z,9.65
2019-05-10T06:06:26.823Z,10.40
2019-05-10T06:08:45.127Z,10.38
2019-05-10T06:11:17.169Z,5.05
2019-05-10T06:13:50.088Z,7.83
2019-05-10T06:16:22.579Z,6.17
2019-05-10T06:18:54.813Z,8.38
2019-05-10T06:21:28.550Z,8.88
2019-05-10T06:24:00.579Z,5.92
2019-05-10T06:26:32.657Z,6.00
2019-05-10T06:29:10.160Z,6.03
2019-05-10T06:31:38.015Z,6.72
2019-05-10T06:34:09.992Z,6.08
2019-05-10T06:36:42.157Z,4.78
2019-05-10T06:39:14.027Z,16.20
2019-05-10T06:41:50.090Z,6.30
2019-05-10T06:44:19.385Z,5.37
2019-05-10T06:46:51.357Z,3.65
2019-05-10T06:49:23.193Z,5.17
2019-05-10T06:51:56.305Z,3.10
2019-05-10T06:54:29.811Z,4.20
2019-05-10T06:57:02.040Z,4.80
2019-05-10T06:59:35.685Z,4.83
2019-05-10T07:04:41.160Z,3.95
2019-05-10T07:07:22.396Z,4.00
2019-05-10T07:10:04.262Z,6.80
2019-05-10T07:12:20.917Z,4.47
2019-05-10T07:14:57.793Z,3.25
2019-05-10T07:17:27.876Z,3.58
2019-05-10T07:20:01.612Z,3.55
2019-05-10T07:22:34.294Z,4.10
2019-05-10T07:25:08.506Z,3.98
2019-05-10T07:27:42.324Z,2.80
2019-05-10T07:30:18.123Z,3.23
2019-05-10T07:32:54.587Z,4.87
2019-05-10T07:35:30.954Z,3.15
2019-05-10T07:37:59.517Z,2.52
2019-05-10T07:40:31.654Z,3.65
2019-05-10T07:43:04.283Z,3.20
2019-05-10T07:45:36.644Z,3.77
2019-05-10T07:48:10.301Z,3.10
2019-05-10T07:50:49.768Z,2.80
2019-05-10T07:53:16.567Z,3.72
2019-05-10T07:55:48.367Z,5.03
2019-05-10T07:58:20.124Z,3.33
2019-05-10T08:00:51.787Z,4.47
2019-05-10T08:03:24.014Z,4.00
2019-05-10T08:06:01.302Z,4.90
2019-05-10T08:08:29.729Z,6.83
2019-05-10T08:11:01.367Z,5.70
2019-05-10T08:13:33.225Z,7.30
2019-05-10T08:16:09.948Z,6.00
2019-05-10T08:18:41.982Z,4.58
2019-05-10T08:21:21.880Z,5.85
2019-05-10T08:23:45.713Z,8.55
2019-05-10T08:26:21.937Z,9.63
2019-05-10T08:28:52.585Z,7.33
2019-05-10T08:31:26.329Z,7.03
2019-05-10T08:33:59.259Z,13.18
2019-05-10T08:36:32.418Z,13.50
2019-05-10T08:39:10.646Z,14.68
2019-05-10T08:41:42.755Z,11.65
2019-05-10T08:44:19.338Z,9.60
2019-05-10T08:46:47.317Z,17.70
2019-05-10T08:49:22.037Z,14.47
2019-05-10T08:51:52.582Z,16.30
2019-05-10T08:54:26.433Z,16.50
2019-05-10T08:57:01.051Z,10.82
2019-05-10T08:59:31.258Z,14.10
2019-05-10T09:02:02.987Z,14.50
2019-05-10T09:04:42.732Z,16.45
2019-05-10T09:07:08.055Z,12.43
2019-05-10T09:09:45.727Z,12.63
2019-05-10T09:12:13.209Z,12.60
2019-05-10T09:14:48.455Z,11.93
2019-05-10T09:17:23.601Z,12.35
2019-05-10T09:19:51.893Z,15.30
2019-05-10T09:22:32.503Z,14.85
2019-05-10T09:24:56.867Z,13.28
2019-05-10T09:27:29.462Z,9.00
2019-05-10T09:30:03.073Z,10.15
2019-05-10T09:32:35.889Z,13.00
2019-05-10T09:35:09.250Z,11.83
2019-05-10T09:37:42.050Z,14.35
2019-05-10T09:40:16.152Z,15.53
2019-05-10T09:42:47.859Z,16.25
2019-05-10T09:45:24.099Z,13.85
2019-05-10T09:47:53.273Z,16.50
2019-05-10T09:50:30.586Z,15.25
2019-05-10T09:52:58.686Z,12.35
2019-05-10T09:55:30.739Z,12.70
2019-05-10T09:58:02.497Z,7.55
2019-05-10T10:00:37.908Z,7.20
2019-05-10T10:03:12.631Z,3.77
2019-05-10T10:05:43.017Z,4.87
2019-05-10T10:08:14.867Z,3.08
2019-05-10T10:10:47.529Z,3.95
2019-05-10T10:15:52.909Z,3.27
2019-05-10T10:18:25.625Z,4.30
2019-05-10T10:20:57.761Z,3.50
2019-05-10T10:23:33.533Z,2.80
2019-05-10T10:26:03.041Z,5.00
2019-05-10T10:28:37.291Z,5.22
2019-05-10T10:31:08.691Z,5.22
2019-05-10T10:33:57.449Z,5.17
2019-05-10T10:36:17.026Z,6.95
2019-05-10T10:38:49.725Z,7.53
2019-05-10T10:41:25.886Z,6.85
2019-05-10T10:43:58.445Z,6.83
2019-05-10T10:46:30.235Z,6.30
2019-05-10T10:49:01.899Z,5.62
2019-05-10T10:51:34.585Z,5.53
2019-05-10T10:54:07.428Z,6.42
2019-05-10T10:56:40.556Z,5.78
2019-05-10T10:59:12.421Z,4.45
2019-05-10T11:01:50.296Z,3.70
2019-05-10T11:04:17.683Z,4.90
2019-05-10T11:06:49.650Z,3.33
2019-05-10T11:09:21.811Z,6.15
2019-05-10T11:11:53.673Z,4.30
2019-05-10T11:14:31.998Z,3.15
2019-05-10T11:17:01.295Z,3.27
2019-05-10T11:19:33.469Z,5.83
2019-05-10T11:22:09.651Z,4.33
2019-05-10T11:27:13.191Z,7.10
2019-05-10T11:29:43.260Z,6.65
2019-05-10T11:32:16.996Z,6.65
2019-05-10T11:34:48.556Z,6.15
2019-05-10T11:37:30.876Z,7.87
2019-05-10T11:39:53.681Z,9.73
2019-05-10T11:42:25.680Z,10.05
2019-05-10T11:45:00.611Z,8.65
2019-05-10T11:50:06.395Z,10.28
2019-05-10T11:52:36.634Z,5.35
2019-05-10T11:55:11.462Z,7.17
2019-05-10T11:57:44.291Z,5.00
2019-05-10T12:00:28.110Z,5.65
2019-05-10T12:05:26.731Z,3.52
2019-05-10T12:07:56.662Z,3.05
2019-05-10T12:10:28.538Z,4.53
2019-05-10T12:13:14.571Z,4.25
2019-05-10T12:15:34.009Z,6.05
2019-05-10T12:18:05.990Z,6.17
2019-05-10T12:20:52.112Z,3.95
2019-05-10T12:25:58.997Z,6.10
2019-05-10T12:25:59.689Z,4.90
2019-05-10T12:26:29.495Z,3.30
2019-05-10T12:28:24.094Z,5.78
2019-05-10T12:30:51.434Z,3.45
2019-05-10T12:33:27.413Z,3.80
2019-05-10T12:35:57.000Z,5.85
2019-05-10T12:38:31.603Z,3.02
2019-05-10T12:41:05.443Z,3.80
2019-05-10T12:43:36.891Z,5.65
2019-05-10T12:46:10.527Z,5.28
2019-05-10T12:48:42.675Z,3.15
2019-05-10T12:51:16.216Z,4.92
2019-05-10T12:53:49.857Z,4.97
2019-05-10T12:56:21.300Z,7.90
2019-05-10T12:58:57.671Z,4.33
2019-05-10T13:01:32.034Z,4.45
2019-05-10T13:04:02.021Z,5.75
2019-05-10T13:06:35.306Z,5.15
2019-05-10T13:09:08.027Z,3.77
2019-05-10T13:11:39.766Z,9.33
2019-05-10T13:14:11.635Z,6.15
2019-05-10T13:16:43.599Z,5.17
2019-05-10T13:19:20.110Z,3.92
2019-05-10T13:21:53.686Z,3.00
2019-05-10T13:24:23.281Z,3.72
2019-05-10T13:26:59.032Z,4.20
2019-05-10T13:29:31.124Z,3.70
2019-05-10T13:32:02.760Z,4.03
2019-05-10T13:34:35.542Z,4.10
2019-05-10T13:37:13.502Z,8.08
2019-05-10T13:39:40.911Z,5.47
2019-05-10T13:42:12.989Z,5.17
2019-05-10T13:44:44.842Z,5.95
2019-05-10T13:47:16.500Z,6.55
2019-05-10T13:49:49.390Z,3.60
2019-05-10T13:52:21.254Z,6.00
2019-05-10T13:54:53.236Z,6.30
2019-05-10T13:57:25.072Z,4.87
2019-05-10T13:59:57.363Z,4.83
2019-05-10T14:02:33.104Z,4.62
2019-05-10T14:05:02.811Z,4.62
2019-05-10T14:07:35.695Z,5.72
2019-05-10T14:10:07.852Z,9.00
2019-05-10T14:12:39.403Z,7.92
2019-05-10T14:15:13.706Z,7.75
2019-05-10T14:17:45.300Z,9.15
2019-05-10T14:20:25.260Z,7.50
2019-05-10T14:22:55.823Z,9.23
2019-05-10T14:25:29.646Z,8.90
2019-05-10T14:27:57.330Z,9.35
2019-05-10T14:30:29.317Z,8.53
2019-05-10T14:33:01.771Z,7.70
2019-05-10T14:35:33.845Z,9.63
2019-05-10T14:38:08.238Z,10.25
2019-05-10T14:40:39.236Z,8.45
2019-05-10T14:43:10.864Z,10.93
2019-05-10T14:45:42.536Z,7.30
2019-05-10T14:48:14.617Z,8.40
2019-05-10T14:50:47.195Z,8.00
2019-05-10T14:53:25.516Z,8.53
2019-05-10T14:55:53.702Z,6.60
2019-05-10T14:58:25.833Z,6.28
2019-05-10T15:00:57.920Z,5.65
2019-05-10T15:03:34.703Z,6.33
2019-05-10T15:06:03.270Z,5.78
2019-05-10T15:08:35.144Z,5.78
2019-05-10T15:11:07.005Z,4.33
2019-05-10T15:13:38.919Z,5.72
2019-05-10T15:16:13.158Z,7.83
2019-05-10T15:18:44.336Z,8.10
2019-05-10T15:21:16.302Z,5.00
2019-05-10T15:23:48.167Z,6.85
2019-05-10T15:26:19.718Z,4.83
2019-05-10T15:28:51.686Z,3.60
2019-05-10T15:31:23.642Z,8.83
2019-05-10T15:33:56.533Z,6.05
2019-05-10T15:36:29.602Z,4.10
2019-05-10T15:39:01.885Z,4.85
2019-05-10T15:41:35.190Z,5.08
2019-05-10T15:44:07.160Z,6.28
2019-05-10T15:46:42.275Z,7.20
2019-05-10T15:49:13.632Z,7.03
2019-05-10T15:51:54.656Z,6.00
2019-05-10T15:54:20.369Z,5.10
2019-05-10T15:56:55.408Z,5.83
2019-05-10T15:59:25.815Z,5.83
2019-05-10T16:01:57.989Z,5.47
2019-05-10T16:04:29.922Z,9.58
2019-05-10T16:07:01.779Z,6.22
2019-05-10T16:09:33.332Z,5.92
2019-05-10T16:12:08.514Z,5.47
2019-05-10T16:14:39.406Z,6.40
2019-05-10T16:17:17.036Z,5.80
2019-05-10T16:19:45.208Z,5.53
2019-05-10T16:22:17.362Z,6.05
2019-05-10T16:24:49.234Z,6.87
2019-05-10T16:27:20.894Z,5.55
2019-05-10T16:29:52.966Z,7.15
2019-05-10T16:32:29.374Z,7.20
2019-05-10T16:34:58.026Z,7.95
2019-05-10T16:37:29.782Z,11.48
2019-05-10T16:40:01.835Z,8.65
2019-05-10T16:42:35.807Z,8.30
2019-05-10T16:45:07.702Z,9.60
2019-05-10T16:47:39.356Z,12.50
2019-05-10T16:50:11.003Z,10.25
2019-05-10T16:52:42.884Z,10.28
2019-05-10T16:55:14.742Z,8.80
2019-05-10T16:57:46.828Z,13.83
2019-05-10T17:00:20.924Z,12.37
2019-05-10T17:02:53.009Z,10.00
2019-05-10T17:05:24.873Z,11.25
2019-05-10T17:07:58.774Z,11.43
2019-05-10T17:10:33.114Z,11.30
2019-05-10T17:13:05.041Z,11.60
2019-05-10T17:15:39.899Z,13.75
2019-05-10T17:18:17.503Z,11.65
2019-05-10T17:20:45.454Z,13.87
2019-05-10T17:23:17.441Z,11.40
2019-05-10T17:25:49.080Z,13.90
2019-05-10T17:28:20.743Z,13.98
2019-05-10T17:30:52.913Z,16.80
2019-05-10T17:33:24.715Z,14.20
2019-05-10T17:36:07.897Z,14.15
2019-05-10T17:38:31.688Z,16.37
2019-05-10T17:41:03.535Z,13.10
2019-05-10T17:43:35.494Z,12.98
2019-05-10T17:46:07.158Z,13.95
2019-05-10T17:48:40.700Z,17.05
2019-05-10T17:51:12.539Z,15.25
2019-05-10T17:53:45.422Z,17.02
2019-05-10T17:56:17.300Z,16.77
2019-05-10T17:58:49.335Z,18.55
2019-05-10T18:01:21.199Z,17.23
2019-05-10T18:03:53.075Z,18.92
2019-05-10T18:06:24.725Z,18.02
2019-05-10T18:08:56.599Z,23.70
2019-05-10T18:11:28.563Z,19.70
2019-05-10T18:14:00.436Z,20.37
2019-05-10T18:16:32.393Z,22.32
2019-05-10T18:19:04.547Z,32.10
2019-05-10T18:21:36.301Z,39.25
2019-05-10T18:24:09.838Z,43.02
2019-05-10T18:26:41.666Z,39.18
2019-05-10T18:29:13.324Z,39.95
2019-05-10T18:31:54.480Z,40.67
2019-05-10T18:34:18.592Z,47.87
2019-05-10T18:36:51.954Z,39.83
2019-05-10T18:39:24.287Z,40.35
2019-05-10T18:41:56.225Z,36.45
2019-05-10T18:44:28.291Z,42.88
2019-05-10T18:47:00.023Z,37.88
2019-05-10T18:49:32.302Z,37.95
2019-05-10T18:52:06.347Z,33.73
2019-05-10T18:54:38.612Z,36.85
2019-05-10T18:57:12.183Z,30.60
2019-05-10T18:59:45.453Z,28.10
2019-05-10T19:02:18.210Z,27.95
2019-05-10T19:04:52.687Z,28.57
2019-05-10T19:07:24.669Z,32.05
2019-05-10T19:09:56.763Z,29.72
2019-05-10T19:12:29.363Z,27.45
2019-05-10T19:15:02.516Z,27.00
2019-05-10T19:17:35.701Z,28.12
2019-05-10T19:20:09.697Z,23.32
2019-05-10T19:22:42.704Z,27.65
2019-05-10T19:25:14.954Z,26.80
2019-05-10T19:27:50.891Z,25.85
2019-05-10T19:30:21.949Z,27.62
2019-05-10T19:32:56.459Z,30.15
2019-05-10T19:35:29.826Z,25.48
2019-05-10T19:38:00.115Z,27.37
2019-05-10T19:40:31.882Z,29.92
2019-05-10T19:43:04.053Z,29.00
2019-05-10T19:45:35.894Z,27.75
2019-05-10T19:48:08.600Z,31.02
2019-05-10T19:50:40.338Z,29.40
2019-05-10T19:53:12.321Z,26.42
2019-05-10T19:55:44.165Z,28.10
2019-05-10T19:58:15.749Z,34.65
2019-05-10T20:00:47.700Z,30.48
2019-05-10T20:03:19.666Z,31.12
2019-05-10T20:05:51.352Z,29.55
2019-05-10T20:08:23.698Z,30.15
2019-05-10T20:10:55.847Z,30.32
2019-05-10T20:13:27.937Z,26.05
2019-05-10T20:16:01.469Z,27.77
2019-05-10T20:18:33.298Z,28.83
2019-05-10T20:21:05.039Z,24.85
2019-05-10T20:23:36.902Z,31.73
2019-05-10T20:26:09.113Z,27.07
2019-05-10T20:28:40.865Z,29.92
2019-05-10T20:31:13.010Z,32.15
2019-05-10T20:33:44.670Z,31.75
2019-05-10T20:36:16.639Z,34.05
2019-05-10T20:38:48.220Z,30.92
2019-05-10T20:41:20.454Z,29.77
2019-05-10T20:43:52.194Z,32.58
2019-05-10T20:46:23.961Z,29.77
2019-05-10T20:48:55.758Z,28.17
2019-05-10T20:51:27.985Z,27.90
2019-05-10T20:54:00.059Z,27.87
2019-05-10T20:56:32.039Z,28.90
2019-05-10T20:59:03.880Z,27.62
2019-05-10T21:01:35.654Z,27.85
2019-05-10T21:04:07.829Z,32.40
2019-05-10T21:06:39.791Z,33.13
2019-05-10T21:09:11.648Z,31.40
2019-05-10T21:11:43.609Z,32.83
2019-05-10T21:14:15.518Z,27.82
2019-05-10T21:16:48.444Z,26.93
2019-05-10T21:19:20.452Z,24.12
2019-05-10T21:21:52.186Z,26.45
2019-05-10T21:24:24.100Z,28.12
2019-05-10T21:26:56.917Z,29.52
2019-05-10T21:29:31.059Z,31.30
2019-05-10T21:32:03.288Z,30.40
2019-05-10T21:34:36.191Z,28.92
2019-05-10T21:37:07.959Z,29.37
2019-05-10T21:39:39.695Z,32.03
2019-05-10T21:42:11.601Z,32.55
2019-05-10T21:44:43.554Z,31.87
2019-05-10T21:47:15.731Z,27.75
2019-05-10T21:49:47.378Z,30.75
2019-05-10T21:52:19.587Z,32.30
2019-05-10T21:54:51.450Z,33.70
2019-05-10T21:57:23.380Z,29.45
2019-05-10T21:59:55.446Z,30.20
2019-05-10T22:02:27.517Z,31.27
2019-05-10T22:05:00.294Z,28.42
2019-05-10T22:07:32.142Z,29.12
2019-05-10T22:10:05.869Z,29.40
2019-05-10T22:12:37.726Z,33.05
2019-05-10T22:15:09.593Z,24.82
2019-05-10T22:17:51.573Z,26.62
2019-05-10T22:20:23.310Z,21.95
2019-05-10T22:22:55.095Z,22.10
2019-05-10T22:25:26.916Z,23.60
2019-05-10T22:27:58.526Z,22.13
2019-05-10T22:30:30.097Z,27.93
2019-05-10T22:33:01.771Z,22.02
2019-05-10T22:35:33.475Z,22.32
2019-05-10T22:38:05.153Z,19.45
2019-05-10T22:40:36.792Z,21.07
2019-05-10T22:43:08.873Z,19.98
2019-05-10T22:45:40.635Z,20.00
2019-05-10T22:48:12.593Z,18.95
2019-05-10T22:50:44.818Z,24.20
2019-05-10T22:53:16.936Z,26.73
2019-05-10T22:55:48.881Z,27.70
2019-05-10T22:58:20.759Z,24.80
2019-05-10T23:00:54.156Z,26.27
2019-05-10T23:03:26.210Z,27.62
2019-05-10T23:05:58.286Z,28.07
2019-05-10T23:08:29.948Z,30.40
2019-05-10T23:11:01.789Z,29.18
2019-05-10T23:13:33.678Z,28.95
2019-05-10T23:16:05.660Z,31.25
2019-05-10T23:18:37.274Z,28.35
2019-05-10T23:21:09.252Z,33.23
2019-05-10T23:23:42.033Z,31.65
2019-05-10T23:26:15.211Z,30.30
2019-05-10T23:28:47.195Z,30.02
2019-05-10T23:31:19.265Z,27.30
2019-05-10T23:33:51.331Z,26.33
2019-05-10T23:36:22.944Z,26.77
2019-05-10T23:38:55.075Z,26.17
2019-05-10T23:41:26.896Z,27.77
2019-05-10T23:43:59.065Z,26.80
2019-05-10T23:46:31.027Z,30.55
2019-05-10T23:49:02.919Z,27.02
2019-05-10T23:51:34.962Z,30.20
2019-05-10T23:54:06.727Z,30.60
2019-05-10T23:56:38.597Z,29.63
2019-05-10T23:59:10.365Z,32.95
